Lake View Terrace, California
Current Conditions -  °F | °C
As of 5:53 PM on Saturday 25 Oct 2014 (Local Time) from KBUR Reporting Station
Clear Clear  
Wind Chill: 75°   Ceiling: Unl
Heat Index: 75°   Visibility: 10mi
Dew Point: 44°   Wind: 7mph
Humidity: 33%   Direction: 160°SSE
Pressure: 29.98"   Gusts: NA
Location:  34.3277°N, 118.389°W
Report Text: KBUR 260053Z 16006KT 10SM CLR 24/07 A2998 RMK AO2 SLP140 T02390067
Loading
Personal Weather Stations






























Interactive Weather Map
Tropical Storm Tracking
New forecast layout! Learn more

10-Day Weather Forecast

Advertisements
Track Severe Weather on mobile